Stryker, Ohio
Current Conditions -  °F | °C
As of 1:53 AM on Tuesday 21 Oct 2014 (Local Time) from KDFI Reporting Station
Overcast Overcast  
Wind Chill: 52°   Ceiling: 7000
Heat Index: 52°   Visibility: 10mi
Dew Point: 45°   Wind: 6mph
Humidity: 77%   Direction: NA
Pressure: 29.91"   Gusts: NA
Location:  41.5°N, 84.41°W
Report Text: KDFI 210553Z AUTO VRB05KT 10SM OVC070 11/07 A2991 RMK AO2 SLP129 T01110072 10128 20111 53005
Loading
Personal Weather Stations






























Interactive Weather Map
Tropical Storm Tracking
New forecast layout! Learn more

10-Day Weather Forecast

Advertisements
Track Severe Weather on mobile